Get Adobe Flash player

РУС

ENG

 
  Pireps - S7
 

Рейс SBIS7 9354

  • Выполнял: Grigoriy Paliy
  • Аэропорт отправления: Domodedovo Airport (UUDD)
  • Аэропорт назначения: Pashkovskiy Krasnodar Intl. (URKK)
  • Тип ВС: TUPOLEV TU15 (RA-85633)
  • Время полёта: 01.56
  • Дата полёта: 27.08.2016
  • Маршрут: DK FV1D FV R11 TS R808 KANON B145 MIMRA G247 BA R114 NZ
  • Статус: Одобрен

Детали полёта
Gross Revenue:
(149 load / $ 700.00 per unit
$ 104, 300.00
Fuel Cost:
(7624 fuel used @ 5.1 / unit)
$ 38, 882.40


Дополнительная информация о полёте:

Лог

Aircraft Used in flight is Tu154_felis_v1.1 S7 Julia Fomina
21:03Flaps 4 Selected at 600ft and 0kts
21:03 Boarding
21:03 Engine 1 Started
21:03 Engine 2 Started
21:03 Engine 3 Started
21:03 Brakes are On
21:03 Brakes are Released
21:09 Navigation Lights ON at 600 AGL
21:09 Beacon Lights ON at 600 AGL
21:09 Navigation Lights OFF at 600 AGL
21:09 Navigation Lights ON at 600 AGL
21:11 You Took off @ 154 Knots and Flaps at Position 4
Departure Weather
UUDD 271730Z 23005MPS 210V280 CAVOK 22/15 Q1016 R88/010095 NOSIGrn
21:12 You exceeded maximum bank angle
21:12Flaps 2 Selected at 2350ft and 186kts
21:12Flaps Retracted at 2940ft and 202kts
21:27 TOC Reached
22:34 Below 10000 feet you are not allowed to go over 250 knots
22:37Flaps 2 Selected at 1990ft and 180kts
22:38Flaps 4 Selected at 1980ft and 174kts
22:39Flaps 6 Selected at 1890ft and 190kts
22:39Flaps 8 Selected at 1890ft and 190kts
22:43 You Landed @ 141 Knots and with -150 Vertical Speed
Arrival Weather
URKK 271730Z 07006MPS CAVOK 27/20 Q1016 R05C/CLRD60 NOSIG RMK QFE759rn
22:44 Beacon Lights OFF at 130 AGL
22:44Flaps 6 Selected at 130ft and 0kts
22:44Flaps 4 Selected at 130ft and 0kts
22:44Flaps 2 Selected at 130ft and 0kts
22:44Flaps Retracted at 130ft and 0kts
22:55 Engine 3 Stoped
22:55 Engine 2 Stoped
22:55 Engine 1 Stoped
22:55 Brakes are On
22:56 Navigation Lights OFF at 130 AGL
22:59 Brakes are Released
22:59 Brakes are On
Pirep logged with S7 Tracking 1.0.0.13



Общая оценка полета : 100%




Route Map



 
 
   
 
Новости

26.04.2018 - Полеты в X-PLANE

Наш клиент S7 Pad поддерживает полеты как в MFSX, Prepar3d V4, так и в X-PLANE 10 и 11 версиях!
На нашем сайте в разреде загруки есть плагин XPUIPIC for X-plane.
Приятных Вам полетов и мягких посадок!

   
 
Авторизация






Регистрация

Восстановить пароль?

Мы в соц. сетях

      



   
  TeamSpeak3 ts.va-s7.ru


   
 

   
 



   
 


Яндекс.Метрика

www.va-s7.ru 2011-2017
Все права защищены.



Минуточку внимания!
Мы не имеем отношения к торговым маркам "S7" и "Globus" и их представителям.
Эмблемы на сайте являются собственностью соответствующих компаний.

аэронавигационная метеорологическая и любая другая информация с данного ресурса ни в коем случае не должна использоваться для реальных полетов